Time;durP1;ratioP1;P1;durP2;ratioP2;P2;SDS_P1;SDS_P2;PMS_P1;PMS_P2;Temp;Humidity;BMP_temperature;BMP_pressure;BME280_temperature;BME280_humidity;BME280_pressure;Samples;Min_cycle;Max_cycle;Signal;HPM_P1;HPM_P2
2023/05/12 00:01:21;;;;;;;0.20;0.20;;;11.90;99.90;;;;;;5082968;28;20027;-74
2023/05/12 00:03:47;;;;;;;0.10;0.10;;;11.90;99.90;;;;;;5083288;28;20044;-75
2023/05/12 00:06:13;;;;;;;3.60;3.40;;;11.90;99.90;;;;;;5083707;28;20064;-75
2023/05/12 00:08:39;;;;;;;1.27;1.27;;;11.90;99.90;;;;;;5081874;28;20075;-75
2023/05/12 00:11:05;;;;;;;0.95;0.95;;;11.90;99.90;;;;;;5081448;28;20028;-75
2023/05/12 00:13:31;;;;;;;2.45;2.35;;;11.90;99.90;;;;;;5081718;28;20028;-75
2023/05/12 00:15:57;;;;;;;0.45;0.45;;;11.90;99.90;;;;;;5081198;28;20582;-75
2023/05/12 00:18:25;;;;;;;0.10;0.10;;;11.90;99.90;;;;;;5090562;28;20076;-75
2023/05/12 00:20:52;;;;;;;0.10;0.10;;;11.90;99.90;;;;;;5101743;28;20331;-75
2023/05/12 00:23:18;;;;;;;0.10;0.10;;;11.80;99.90;;;;;;5102380;28;20040;-75
2023/05/12 00:25:44;;;;;;;0.20;0.20;;;11.70;99.90;;;;;;5094621;28;20077;-75
2023/05/12 00:28:12;;;;;;;0.10;0.10;;;11.70;99.90;;;;;;5104540;28;20470;-75
2023/05/12 00:30:38;;;;;;;0.20;0.20;;;11.70;99.90;;;;;;5084893;28;20024;-75
2023/05/12 00:33:05;;;;;;;0.20;0.20;;;11.70;99.90;;;;;;5088437;28;20035;-75
2023/05/12 00:35:33;;;;;;;0.20;0.20;;;11.70;99.90;;;;;;5092477;28;20270;-75
2023/05/12 00:37:58;;;;;;;0.10;0.10;;;11.80;99.90;;;;;;5086488;28;20020;-73
2023/05/12 00:40:30;;;;;;;1.48;1.45;;;11.80;99.90;;;;;;5092561;28;20047;-74
2023/05/12 00:42:56;;;;;;;0.10;0.10;;;11.80;99.90;;;;;;5092819;28;20040;-75
2023/05/12 00:45:22;;;;;;;0.10;0.10;;;11.90;99.90;;;;;;5093549;28;20043;-75
2023/05/12 00:47:50;;;;;;;0.10;0.10;;;12.10;99.90;;;;;;5086541;28;20031;-74
2023/05/12 00:50:17;;;;;;;0.20;0.20;;;11.90;99.90;;;;;;5091914;28;20038;-74
2023/05/12 00:52:43;;;;;;;1.27;1.17;;;11.80;99.90;;;;;;5088602;28;20485;-79
2023/05/12 00:55:10;;;;;;;0.15;0.15;;;11.70;99.90;;;;;;5085014;28;20052;-75
2023/05/12 00:57:36;;;;;;;0.10;0.10;;;11.60;99.90;;;;;;5089292;28;20019;-76
2023/05/12 01:00:03;;;;;;;0.43;0.43;;;11.60;99.90;;;;;;5090521;28;20024;-75
2023/05/12 01:02:29;;;;;;;0.60;0.60;;;11.60;99.90;;;;;;5087208;28;20028;-75
2023/05/12 01:04:55;;;;;;;0.10;0.10;;;11.40;99.90;;;;;;5093590;28;20083;-74
2023/05/12 01:07:22;;;;;;;0.17;0.17;;;11.40;99.90;;;;;;5093678;28;20439;-75
2023/05/12 01:09:52;;;;;;;0.35;0.35;;;10.00;99.90;;;;;;5090788;28;20020;-75
2023/05/12 01:12:20;;;;;;;0.13;0.13;;;11.30;99.90;;;;;;5093549;28;20044;-75
2023/05/12 01:14:52;;;;;;;0.20;0.20;;;11.30;99.90;;;;;;5099061;28;20025;-75
2023/05/12 01:17:46;;;;;;;0.20;0.20;;;11.30;99.90;;;;;;5097498;28;20398;-77
2023/05/12 01:20:15;;;;;;;0.10;0.10;;;11.20;99.90;;;;;;5096971;28;20029;-75
2023/05/12 01:22:41;;;;;;;0.28;0.28;;;11.20;99.90;;;;;;5103148;28;20402;-77
2023/05/12 01:25:10;;;;;;;0.20;0.20;;;11.20;99.90;;;;;;5103111;28;20035;-76
2023/05/12 01:27:38;;;;;;;0.10;0.10;;;11.20;99.90;;;;;;5102424;28;20028;-75
2023/05/12 01:30:07;;;;;;;2.03;1.95;;;11.10;99.90;;;;;;5102194;28;20012;-74
2023/05/12 01:32:34;;;;;;;0.15;0.15;;;11.10;99.90;;;;;;5098057;28;20039;-78
2023/05/12 01:35:00;;;;;;;0.10;0.10;;;11.10;99.90;;;;;;5094495;28;20028;-75
2023/05/12 01:37:27;;;;;;;0.10;0.10;;;11.10;99.90;;;;;;5101743;28;20024;-75
2023/05/12 01:39:53;;;;;;;0.10;0.10;;;11.10;99.90;;;;;;5101122;28;20016;-74
2023/05/12 01:42:19;;;;;;;0.20;0.20;;;11.10;99.90;;;;;;5101288;28;20024;-76
2023/05/12 01:44:46;;;;;;;0.20;0.20;;;11.10;99.90;;;;;;5091653;28;20073;-75
2023/05/12 01:47:20;;;;;;;0.10;0.10;;;11.10;99.90;;;;;;5099401;28;20027;-76
2023/05/12 01:50:06;;;;;;;0.13;0.13;;;11.50;99.90;;;;;;5101279;28;20097;-75
2023/05/12 01:52:32;;;;;;;0.20;0.20;;;11.10;99.90;;;;;;5093485;28;20074;-75
2023/05/12 01:54:58;;;;;;;0.20;0.20;;;11.30;99.90;;;;;;5085263;28;20099;-75
2023/05/12 01:57:23;;;;;;;0.10;0.10;;;11.20;99.90;;;;;;5095344;28;20060;-75
2023/05/12 01:59:49;;;;;;;0.20;0.20;;;11.30;99.90;;;;;;5089481;28;20047;-75
2023/05/12 02:02:15;;;;;;;0.10;0.10;;;11.30;99.90;;;;;;5093305;28;20046;-76
2023/05/12 02:04:42;;;;;;;0.20;0.20;;;11.30;99.90;;;;;;5094114;28;20418;-75
2023/05/12 02:07:10;;;;;;;0.20;0.20;;;11.30;99.90;;;;;;5085827;28;20072;-75
2023/05/12 02:09:39;;;;;;;0.13;0.13;;;11.40;99.90;;;;;;5085671;28;20082;-76
2023/05/12 02:12:06;;;;;;;0.15;0.15;;;11.40;99.90;;;;;;5084230;28;20077;-74
2023/05/12 02:14:33;;;;;;;1.60;1.55;;;11.60;99.90;;;;;;5083821;28;20271;-75
2023/05/12 02:17:00;;;;;;;0.60;0.60;;;11.40;99.90;;;;;;5086616;28;20270;-78
2023/05/12 02:19:27;;;;;;;0.10;0.10;;;11.40;99.90;;;;;;5090732;28;20020;-75
2023/05/12 02:21:55;;;;;;;0.10;0.10;;;11.50;99.90;;;;;;5092137;28;20027;-74
2023/05/12 02:24:21;;;;;;;0.10;0.10;;;11.50;99.90;;;;;;5090660;28;20028;-74
2023/05/12 02:26:46;;;;;;;0.20;0.20;;;11.60;99.90;;;;;;5102872;28;20039;-75
2023/05/12 02:29:12;;;;;;;0.20;0.20;;;11.60;99.90;;;;;;5102270;28;20024;-76
2023/05/12 02:31:38;;;;;;;0.10;0.10;;;11.60;99.90;;;;;;5094595;28;20020;-75
2023/05/12 02:34:03;;;;;;;0.20;0.20;;;11.60;99.90;;;;;;5093951;28;20382;-78
2023/05/12 02:36:29;;;;;;;0.13;0.13;;;11.60;99.90;;;;;;5088625;28;20048;-74
2023/05/12 02:38:58;;;;;;;1.17;1.17;;;11.40;99.90;;;;;;5086915;28;20028;-76
2023/05/12 02:41:25;;;;;;;0.20;0.20;;;11.40;99.90;;;;;;5090420;28;20096;-75
2023/05/12 02:43:51;;;;;;;0.20;0.20;;;11.30;99.90;;;;;;5089465;28;20028;-74
2023/05/12 02:46:17;;;;;;;0.20;0.20;;;11.30;99.90;;;;;;5085537;28;20028;-75
2023/05/12 02:48:44;;;;;;;0.13;0.13;;;11.30;99.90;;;;;;5092731;28;20634;-74
2023/05/12 02:51:22;;;;;;;0.20;0.20;;;11.30;99.90;;;;;;5095166;28;20039;-74
2023/05/12 02:53:47;;;;;;;0.10;0.10;;;11.30;99.90;;;;;;5095728;28;20119;-75
2023/05/12 02:56:13;;;;;;;3.75;3.63;;;11.30;99.90;;;;;;5084476;28;20557;-74
2023/05/12 02:58:39;;;;;;;0.20;0.20;;;11.30;99.90;;;;;;5090772;28;20035;-75
2023/05/12 03:01:04;;;;;;;0.10;0.10;;;11.20;99.90;;;;;;5090304;28;20026;-75
2023/05/12 03:03:30;;;;;;;0.20;0.20;;;11.20;99.90;;;;;;5091839;28;20081;-75
2023/05/12 03:05:56;;;;;;;0.20;0.20;;;11.20;99.90;;;;;;5094268;28;20382;-76
2023/05/12 03:08:22;;;;;;;0.10;0.10;;;11.10;99.90;;;;;;5095418;28;20020;-74
2023/05/12 03:10:48;;;;;;;0.15;0.15;;;11.00;99.90;;;;;;5093549;28;20043;-76
2023/05/12 03:13:14;;;;;;;0.15;0.15;;;11.00;99.90;;;;;;5089637;28;20685;-75
2023/05/12 03:15:40;;;;;;;0.20;0.20;;;10.90;99.90;;;;;;5089478;28;20258;-75
2023/05/12 03:18:06;;;;;;;0.10;0.10;;;10.90;99.90;;;;;;5090889;28;20055;-75
2023/05/12 03:20:31;;;;;;;0.20;0.20;;;10.80;99.90;;;;;;5092659;28;20027;-76
2023/05/12 03:22:57;;;;;;;0.20;0.20;;;10.70;99.90;;;;;;5086319;28;20386;-74
2023/05/12 03:25:23;;;;;;;0.15;0.15;;;10.80;99.90;;;;;;5089704;28;20039;-74
2023/05/12 03:27:48;;;;;;;0.20;0.20;;;10.70;99.90;;;;;;5084300;28;20076;-76
2023/05/12 03:30:14;;;;;;;0.20;0.20;;;10.70;99.90;;;;;;5085166;28;20216;-78
2023/05/12 03:32:41;;;;;;;0.10;0.10;;;10.70;99.90;;;;;;5087598;28;20510;-74
2023/05/12 03:35:07;;;;;;;0.17;0.17;;;10.60;99.90;;;;;;5087843;28;20050;-75
2023/05/12 03:37:32;;;;;;;0.10;0.10;;;10.60;99.90;;;;;;5086665;28;20020;-74
2023/05/12 03:39:58;;;;;;;0.10;0.10;;;11.10;99.90;;;;;;5088400;28;20051;-75
2023/05/12 03:42:24;;;;;;;0.10;0.10;;;10.60;99.90;;;;;;5083883;28;20664;-74
2023/05/12 03:44:51;;;;;;;0.10;0.10;;;10.60;99.90;;;;;;5086832;28;20040;-75
2023/05/12 03:47:16;;;;;;;0.20;0.20;;;10.50;99.90;;;;;;5087738;28;20378;-75
2023/05/12 03:49:44;;;;;;;0.10;0.10;;;10.50;99.90;;;;;;5088835;28;20304;-77
2023/05/12 03:52:09;;;;;;;0.10;0.10;;;10.50;99.90;;;;;;5091280;28;20009;-76
2023/05/12 03:54:35;;;;;;;0.10;0.10;;;10.50;99.90;;;;;;5087528;28;20094;-75
2023/05/12 03:57:01;;;;;;;0.10;0.10;;;10.50;99.90;;;;;;5086350;28;20051;-77
2023/05/12 03:59:30;;;;;;;0.20;0.20;;;10.50;99.90;;;;;;5084914;28;20024;-75
2023/05/12 04:01:56;;;;;;;0.10;0.10;;;12.10;99.90;;;;;;5084127;28;20028;-73
2023/05/12 04:04:22;;;;;;;0.10;0.10;;;10.50;99.90;;;;;;5082951;28;20024;-74
2023/05/12 04:06:48;;;;;;;0.10;0.10;;;10.50;99.90;;;;;;5082464;28;20029;-76
2023/05/12 04:09:15;;;;;;;0.20;0.20;;;10.50;99.90;;;;;;5089888;28;20028;-75
2023/05/12 04:11:41;;;;;;;0.10;0.10;;;10.50;99.90;;;;;;5087888;28;20085;-76
2023/05/12 04:14:07;;;;;;;0.10;0.10;;;10.50;99.90;;;;;;5088080;28;20032;-74
2023/05/12 04:16:34;;;;;;;0.10;0.10;;;10.50;99.90;;;;;;5088139;28;20297;-77
2023/05/12 04:19:02;;;;;;;0.10;0.10;;;10.50;99.90;;;;;;5095634;28;20012;-75
2023/05/12 04:21:28;;;;;;;0.10;0.10;;;10.60;99.90;;;;;;5095757;28;20034;-74
2023/05/12 04:23:54;;;;;;;0.10;0.10;;;10.60;99.90;;;;;;5099887;28;20051;-75
2023/05/12 04:26:20;;;;;;;0.20;0.20;;;10.60;99.90;;;;;;5099614;28;20055;-77
2023/05/12 04:28:46;;;;;;;0.20;0.20;;;10.70;99.90;;;;;;5098583;28;20028;-74
2023/05/12 04:31:12;;;;;;;0.10;0.10;;;10.70;99.90;;;;;;5100046;28;20615;-76
2023/05/12 04:33:38;;;;;;;0.10;0.10;;;10.80;99.90;;;;;;5099185;28;20035;-78
2023/05/12 04:36:04;;;;;;;0.20;0.20;;;10.80;99.90;;;;;;5094563;28;20028;-74
2023/05/12 04:38:30;;;;;;;0.20;0.20;;;10.80;99.90;;;;;;5098900;28;20028;-74
2023/05/12 04:40:59;;;;;;;0.10;0.10;;;10.90;99.90;;;;;;5104266;28;20122;-80
2023/05/12 04:43:26;;;;;;;0.20;0.20;;;11.00;99.90;;;;;;5094525;28;20332;-76
2023/05/12 04:45:54;;;;;;;0.20;0.20;;;11.00;99.90;;;;;;5096728;28;20246;-78
2023/05/12 04:48:20;;;;;;;0.10;0.10;;;11.00;99.90;;;;;;5100413;28;20123;-74
2023/05/12 04:50:47;;;;;;;0.10;0.10;;;11.00;99.90;;;;;;5093114;28;20031;-74
2023/05/12 04:53:14;;;;;;;0.10;0.10;;;11.00;99.90;;;;;;5093529;28;20026;-74
2023/05/12 04:55:41;;;;;;;0.10;0.10;;;11.00;99.90;;;;;;5089756;28;20121;-74
2023/05/12 04:58:07;;;;;;;0.10;0.10;;;11.00;99.90;;;;;;5094604;28;20312;-74
2023/05/12 05:00:33;;;;;;;0.10;0.10;;;11.00;99.90;;;;;;5093989;28;20075;-75
2023/05/12 05:02:58;;;;;;;3.78;3.60;;;11.00;99.90;;;;;;5094474;28;20016;-74
2023/05/12 05:05:24;;;;;;;0.20;0.20;;;11.00;99.90;;;;;;5091892;28;20035;-77
2023/05/12 05:07:50;;;;;;;1.40;1.35;;;11.00;99.90;;;;;;5091635;28;20031;-74
2023/05/12 05:10:16;;;;;;;0.20;0.20;;;11.00;99.90;;;;;;5092897;28;20450;-74
2023/05/12 05:12:42;;;;;;;0.20;0.20;;;;;;;;;;5098000;28;20040;-74
2023/05/12 05:15:10;;;;;;;1.17;1.17;;;11.10;99.90;;;;;;5100941;28;20677;-75
2023/05/12 05:17:36;;;;;;;0.20;0.20;;;11.10;99.90;;;;;;5101152;28;20549;-74
2023/05/12 05:20:02;;;;;;;0.20;0.20;;;11.20;99.90;;;;;;5093361;28;20657;-74
2023/05/12 05:22:28;;;;;;;0.10;0.10;;;11.30;99.90;;;;;;5096754;28;20145;-75
2023/05/12 05:24:53;;;;;;;0.20;0.20;;;11.50;99.90;;;;;;5088972;28;20032;-74
2023/05/12 05:27:19;;;;;;;0.10;0.10;;;11.60;99.90;;;;;;5087230;28;20115;-79
2023/05/12 05:29:46;;;;;;;0.10;0.10;;;;;;;;;;5086680;28;20039;-75
2023/05/12 05:32:11;;;;;;;0.10;0.10;;;11.90;99.90;;;;;;5081706;28;20518;-78
2023/05/12 05:34:37;;;;;;;0.10;0.10;;;12.10;99.90;;;;;;5080483;28;20016;-78
2023/05/12 05:37:03;;;;;;;0.20;0.20;;;12.20;99.90;;;;;;5079554;28;20585;-86
2023/05/12 05:39:29;;;;;;;0.20;0.20;;;12.20;99.90;;;;;;5077026;28;20502;-76
2023/05/12 05:41:56;;;;;;;0.10;0.10;;;12.20;99.90;;;;;;5078468;28;20319;-80
2023/05/12 05:44:23;;;;;;;0.10;0.10;;;12.30;99.90;;;;;;5079307;28;20017;-85
2023/05/12 05:46:49;;;;;;;0.20;0.20;;;12.30;99.90;;;;;;5078100;28;20032;-81
2023/05/12 05:49:17;;;;;;;0.10;0.10;;;12.30;99.90;;;;;;5078849;28;20322;-80
2023/05/12 05:51:43;;;;;;;0.20;0.20;;;12.40;99.90;;;;;;5077272;28;20326;-81
2023/05/12 05:54:08;;;;;;;0.10;0.10;;;12.30;99.90;;;;;;5078915;28;20032;-85
2023/05/12 05:56:34;;;;;;;0.10;0.10;;;12.40;99.90;;;;;;5078770;28;20012;-86
2023/05/12 05:59:03;;;;;;;0.20;0.20;;;12.40;99.90;;;;;;5078566;28;20059;-78
2023/05/12 06:01:29;;;;;;;0.10;0.10;;;12.50;99.90;;;;;;5076537;28;20030;-86
2023/05/12 06:03:55;;;;;;;0.20;0.20;;;12.60;99.90;;;;;;5077665;28;20050;-80
2023/05/12 06:06:21;;;;;;;0.20;0.20;;;12.70;99.90;;;;;;5078152;28;20024;-81
2023/05/12 06:08:46;;;;;;;0.10;0.10;;;12.70;99.90;;;;;;5081377;28;20095;-82
2023/05/12 06:11:12;;;;;;;0.10;0.10;;;12.70;99.90;;;;;;5081894;28;20130;-84
2023/05/12 06:13:38;;;;;;;0.10;0.10;;;12.80;99.90;;;;;;5081325;28;20032;-75
2023/05/12 06:16:04;;;;;;;0.10;0.10;;;13.00;99.90;;;;;;5081243;28;20265;-82
2023/05/12 06:18:32;;;;;;;0.10;0.10;;;13.10;99.90;;;;;;5080630;28;20026;-75
2023/05/12 06:20:58;;;;;;;0.10;0.10;;;13.10;99.90;;;;;;5080490;28;20024;-80
2023/05/12 06:23:24;;;;;;;0.20;0.20;;;13.20;99.90;;;;;;5081244;28;20097;-84
2023/05/12 06:25:50;;;;;;;0.10;0.10;;;13.20;99.90;;;;;;5081105;28;20518;-81
2023/05/12 06:28:16;;;;;;;0.13;0.13;;;13.30;99.90;;;;;;5080752;28;20466;-80
2023/05/12 06:30:41;;;;;;;0.10;0.10;;;13.40;99.90;;;;;;5080498;28;20398;-78
2023/05/12 06:33:07;;;;;;;0.20;0.20;;;13.50;99.90;;;;;;5080419;28;20103;-86
2023/05/12 06:35:33;;;;;;;0.10;0.10;;;13.60;99.90;;;;;;5080551;28;20500;-87
2023/05/12 06:37:59;;;;;;;0.10;0.10;;;13.90;99.90;;;;;;5080167;28;20107;-76
2023/05/12 06:40:24;;;;;;;0.10;0.10;;;13.70;99.90;;;;;;5081588;28;20196;-77
2023/05/12 06:42:50;;;;;;;0.10;0.10;;;13.70;99.90;;;;;;5083298;28;20312;-81
2023/05/12 06:45:16;;;;;;;0.20;0.20;;;13.80;99.90;;;;;;5084557;28;20517;-84
2023/05/12 06:47:42;;;;;;;0.10;0.10;;;13.90;99.90;;;;;;5083116;28;20016;-81
2023/05/12 06:50:08;;;;;;;0.15;0.15;;;13.90;99.90;;;;;;5080712;28;20101;-85
2023/05/12 06:52:34;;;;;;;0.10;0.10;;;13.90;99.90;;;;;;5081044;28;20016;-85
2023/05/12 06:55:00;;;;;;;0.13;0.13;;;14.00;99.90;;;;;;5081143;28;20071;-75
2023/05/12 06:57:26;;;;;;;0.10;0.10;;;14.20;99.90;;;;;;5080998;28;20059;-84
2023/05/12 06:59:52;;;;;;;0.10;0.10;;;14.50;99.90;;;;;;5083422;28;20035;-85
2023/05/12 07:02:17;;;;;;;0.10;0.10;;;14.60;99.90;;;;;;5083135;28;20022;-93
2023/05/12 07:04:43;;;;;;;0.10;0.10;;;14.50;99.90;;;;;;5080056;28;20017;-73
2023/05/12 07:07:09;;;;;;;0.10;0.10;;;14.90;99.90;;;;;;5079662;28;20054;-85
2023/05/12 07:09:34;;;;;;;0.13;0.13;;;15.00;99.90;;;;;;5079901;28;20013;-81
2023/05/12 07:12:00;;;;;;;0.20;0.20;;;15.10;99.90;;;;;;5080510;28;20096;-75
2023/05/12 07:14:26;;;;;;;0.17;0.17;;;15.50;99.90;;;;;;5078847;28;20118;-77
2023/05/12 07:16:52;;;;;;;0.10;0.10;;;15.20;99.90;;;;;;5080023;28;20582;-83
2023/05/12 07:19:18;;;;;;;0.10;0.10;;;15.40;99.90;;;;;;5079754;28;20020;-81
2023/05/12 07:21:43;;;;;;;0.10;0.10;;;12.40;99.90;;;;;;5079425;28;20020;-77
2023/05/12 07:24:09;;;;;;;0.10;0.10;;;15.60;99.90;;;;;;5080060;28;20157;-78
2023/05/12 07:26:35;;;;;;;0.20;0.20;;;15.70;99.90;;;;;;5079740;28;20107;-79
2023/05/12 07:29:02;;;;;;;0.10;0.10;;;15.80;99.90;;;;;;5079833;28;20043;-76
2023/05/12 07:31:28;;;;;;;0.10;0.10;;;16.10;99.90;;;;;;5079511;28;20024;-80
2023/05/12 07:33:54;;;;;;;0.10;0.10;;;16.10;99.90;;;;;;5079772;28;20027;-82
2023/05/12 07:36:20;;;;;;;0.10;0.10;;;16.20;99.90;;;;;;5079048;28;20028;-84
2023/05/12 07:38:45;;;;;;;0.10;0.10;;;16.20;99.90;;;;;;5079209;28;20016;-74
2023/05/12 07:41:11;;;;;;;0.15;0.15;;;16.30;99.90;;;;;;5079357;28;20025;-78
2023/05/12 07:43:37;;;;;;;0.10;0.10;;;16.00;99.90;;;;;;5079935;28;20112;-83
2023/05/12 07:46:03;;;;;;;0.10;0.10;;;16.00;99.90;;;;;;5080231;28;20119;-85
2023/05/12 07:48:29;;;;;;;0.10;0.10;;;16.10;99.90;;;;;;5080482;28;20020;-86
2023/05/12 07:50:55;;;;;;;0.10;0.10;;;16.10;99.90;;;;;;5078855;28;20023;-84
2023/05/12 07:53:20;;;;;;;0.20;0.20;;;16.20;99.90;;;;;;5078722;28;20012;-75
2023/05/12 07:55:46;;;;;;;0.10;0.10;;;16.30;99.90;;;;;;5078486;28;20035;-73
2023/05/12 07:58:12;;;;;;;0.10;0.10;;;16.30;99.90;;;;;;5078932;28;20024;-82
2023/05/12 08:00:39;;;;;;;0.10;0.10;;;16.30;99.90;;;;;;5077374;28;20035;-82
2023/05/12 08:03:06;;;;;;;0.10;0.10;;;16.40;99.90;;;;;;5078818;28;20008;-83
2023/05/12 08:05:32;;;;;;;0.17;0.17;;;16.50;99.90;;;;;;5077161;28;20036;-74
2023/05/12 08:07:58;;;;;;;0.10;0.10;;;16.30;99.90;;;;;;5078951;28;20164;-74
2023/05/12 08:10:28;;;;;;;1.25;1.17;;;16.30;99.90;;;;;;5078289;28;20091;-74
2023/05/12 08:12:54;;;;;;;0.10;0.10;;;16.20;99.90;;;;;;5078766;28;20107;-85
2023/05/12 08:15:20;;;;;;;0.10;0.10;;;16.20;99.90;;;;;;5078770;28;20559;-72
2023/05/12 08:17:45;;;;;;;0.10;0.10;;;16.00;99.90;;;;;;5078434;28;20039;-78
2023/05/12 08:20:11;;;;;;;0.20;0.20;;;15.80;99.90;;;;;;5078605;28;20024;-79
2023/05/12 08:22:38;;;;;;;1.08;1.05;;;15.50;99.90;;;;;;5078470;28;20657;-76
2023/05/12 08:25:04;;;;;;;0.32;0.32;;;15.40;99.90;;;;;;5078170;28;20622;-80
2023/05/12 08:27:30;;;;;;;0.10;0.10;;;15.40;99.90;;;;;;5077233;28;20645;-81
2023/05/12 08:29:56;;;;;;;0.10;0.10;;;15.60;99.90;;;;;;5077851;28;20055;-78
2023/05/12 08:32:22;;;;;;;0.10;0.10;;;15.70;99.90;;;;;;5077590;28;20040;-82
2023/05/12 08:34:48;;;;;;;0.55;0.55;;;16.10;99.90;;;;;;5077633;28;20077;-77
2023/05/12 08:37:13;;;;;;;0.10;0.10;;;16.40;99.90;;;;;;5077568;28;20032;-81
2023/05/12 08:39:39;;;;;;;0.10;0.10;;;16.70;99.90;;;;;;5077520;28;20047;-80
2023/05/12 08:42:35;;;;;;;0.60;0.60;;;17.20;99.90;;;;;;5077356;28;20319;-82
2023/05/12 08:45:02;;;;;;;0.10;0.10;;;17.60;99.90;;;;;;5077391;28;20032;-81
2023/05/12 08:47:29;;;;;;;0.10;0.10;;;17.70;99.90;;;;;;5076889;28;20319;-75
2023/05/12 08:50:00;;;;;;;0.10;0.10;;;18.30;99.90;;;;;;5077082;28;20100;-81
2023/05/12 08:52:32;;;;;;;0.10;0.10;;;18.20;99.90;;;;;;5077376;28;20020;-80
2023/05/12 08:54:58;;;;;;;0.20;0.20;;;18.30;99.90;;;;;;5076470;28;20522;-84
2023/05/12 08:57:25;;;;;;;0.10;0.10;;;18.00;99.90;;;;;;5078613;28;20013;-76
2023/05/12 08:59:55;;;;;;;0.10;0.10;;;18.00;99.90;;;;;;5079183;28;20043;-84
2023/05/12 09:02:23;;;;;;;0.10;0.10;;;17.90;99.90;;;;;;5078434;28;20040;-83
2023/05/12 09:04:50;;;;;;;0.10;0.10;;;17.90;99.90;;;;;;5078249;28;20091;-84
2023/05/12 09:07:18;;;;;;;0.10;0.10;;;18.20;99.90;;;;;;5078586;28;20028;-79
2023/05/12 09:09:46;;;;;;;0.10;0.10;;;18.90;99.90;;;;;;5078075;28;20012;-83
2023/05/12 09:12:15;;;;;;;0.10;0.10;;;19.30;99.90;;;;;;5078392;28;20027;-85
2023/05/12 09:14:43;;;;;;;0.10;0.10;;;19.20;98.20;;;;;;5076400;28;20036;-74
2023/05/12 09:17:11;;;;;;;0.20;0.20;;;19.50;99.30;;;;;;5077944;28;20052;-82
2023/05/12 09:19:36;;;;;;;0.10;0.10;;;19.70;95.90;;;;;;5077403;28;20014;-82
2023/05/12 09:22:02;;;;;;;0.10;0.10;;;19.50;98.70;;;;;;5077891;28;20012;-81
2023/05/12 09:24:39;;;;;;;0.10;0.10;;;19.80;99.60;;;;;;5077493;28;20092;-78
2023/05/12 09:27:05;;;;;;;0.10;0.10;;;19.90;99.90;;;;;;5077293;28;20103;-80
2023/05/12 09:29:32;;;;;;;0.10;0.10;;;20.40;99.90;;;;;;5077295;28;20028;-80
2023/05/12 09:32:01;;;;;;;0.10;0.10;;;20.60;99.90;;;;;;5077527;28;20161;-81
2023/05/12 09:34:31;;;;;;;0.10;0.10;;;20.70;99.10;;;;;;5077519;28;20016;-78
2023/05/12 09:36:58;;;;;;;0.10;0.10;;;21.30;98.20;;;;;;5079975;28;20036;-76
2023/05/12 09:39:24;;;;;;;0.10;0.10;;;21.30;99.70;;;;;;5080375;28;20020;-75
2023/05/12 09:41:53;;;;;;;0.10;0.10;;;21.10;97.30;;;;;;5081970;28;20023;-79
2023/05/12 09:44:20;;;;;;;0.10;0.10;;;21.30;96.30;;;;;;5083177;28;20024;-74
2023/05/12 09:46:46;;;;;;;0.10;0.10;;;21.40;97.10;;;;;;5082365;28;20316;-80
2023/05/12 09:49:20;;;;;;;0.10;0.10;;;21.30;99.90;;;;;;5081481;28;20499;-76
2023/05/12 09:51:50;;;;;;;0.10;0.10;;;21.50;96.70;;;;;;5081747;28;20028;-77
2023/05/12 09:54:27;;;;;;;0.45;0.45;;;21.50;95.10;;;;;;5081138;28;20047;-75
2023/05/12 09:57:00;;;;;;;0.10;0.10;;;21.90;94.80;;;;;;5081361;28;20026;-79
2023/05/12 09:59:35;;;;;;;0.10;0.10;;;22.30;94.20;;;;;;5081485;28;20016;-78
2023/05/12 10:02:03;;;;;;;0.10;0.10;;;22.30;85.80;;;;;;5080334;28;20056;-72
2023/05/12 10:04:38;;;;;;;0.10;0.10;;;21.70;89.30;;;;;;5080147;28;20023;-72
2023/05/12 10:07:07;;;;;;;0.10;0.10;;;21.30;89.90;;;;;;5080610;28;20060;-80
2023/05/12 10:09:38;;;;;;;0.10;0.10;;;21.40;90.60;;;;;;5080458;28;20423;-75
2023/05/12 10:12:05;;;;;;;0.10;0.10;;;21.00;92.70;;;;;;5078762;28;20568;-81
2023/05/12 10:14:31;;;;;;;0.10;0.10;;;20.80;94.10;;;;;;5080701;28;20031;-75
2023/05/12 10:16:58;;;;;;;0.10;0.10;;;21.00;98.90;;;;;;5080543;28;20016;-80
2023/05/12 10:19:25;;;;;;;0.10;0.10;;;20.30;99.90;;;;;;5080457;28;20016;-74
2023/05/12 10:21:52;;;;;;;0.10;0.10;;;20.10;99.90;;;;;;5080934;28;20012;-73
2023/05/12 10:24:19;;;;;;;0.10;0.10;;;20.00;99.90;;;;;;5081107;28;20019;-77
2023/05/12 10:26:46;;;;;;;0.10;0.10;;;19.70;99.90;;;;;;5082041;28;20059;-74
2023/05/12 10:29:13;;;;;;;0.10;0.10;;;19.40;99.90;;;;;;5080985;28;20083;-73
2023/05/12 10:31:39;;;;;;;0.17;0.17;;;19.20;99.90;;;;;;5080570;28;20103;-73
2023/05/12 10:34:05;;;;;;;0.10;0.10;;;18.70;99.90;;;;;;5080270;28;20028;-77
2023/05/12 10:36:41;;;;;;;0.10;0.10;;;18.50;99.90;;;;;;5080164;28;20031;-74
2023/05/12 10:39:08;;;;;;;0.10;0.10;;;17.90;99.90;;;;;;5078336;28;20664;-79
2023/05/12 10:41:35;;;;;;;0.10;0.10;;;17.70;99.90;;;;;;5079798;28;20016;-79
2023/05/12 10:44:01;;;;;;;0.10;0.10;;;17.40;99.90;;;;;;5080152;28;20027;-78
2023/05/12 10:46:27;;;;;;;0.10;0.10;;;16.70;99.90;;;;;;5080034;28;20032;-82
2023/05/12 10:49:02;;;;;;;0.10;0.10;;;15.70;99.90;;;;;;5079880;28;20730;-79
2023/05/12 10:51:30;;;;;;;0.10;0.10;;;15.60;99.90;;;;;;5080173;28;20132;-75
2023/05/12 10:53:58;;;;;;;0.10;0.10;;;15.50;99.90;;;;;;5078643;28;20071;-79
2023/05/12 10:56:30;;;;;;;0.10;0.10;;;15.50;99.90;;;;;;5079769;28;20016;-80
2023/05/12 10:59:12;;;;;;;0.30;0.30;;;15.60;99.90;;;;;;5079827;28;20815;-80
2023/05/12 11:01:54;;;;;;;0.10;0.10;;;15.70;99.90;;;;;;5079794;28;20286;-78
2023/05/12 11:04:21;;;;;;;0.10;0.10;;;15.80;99.90;;;;;;5079343;28;20027;-76
2023/05/12 11:06:57;;;;;;;0.10;0.10;;;15.90;99.90;;;;;;5079536;28;20059;-81
2023/05/12 11:09:24;;;;;;;0.10;0.10;;;16.10;99.90;;;;;;5079479;28;20009;-76
2023/05/12 11:11:49;;;;;;;0.10;0.10;;;16.30;99.90;;;;;;5079424;28;20733;-83
2023/05/12 11:14:16;;;;;;;0.10;0.10;;;16.40;99.90;;;;;;5079556;28;20028;-79
2023/05/12 11:16:43;;;;;;;0.10;0.10;;;16.30;99.90;;;;;;5079826;28;20078;-81
2023/05/12 11:19:09;;;;;;;0.10;0.10;;;16.20;99.90;;;;;;5079501;28;20179;-79
2023/05/12 11:21:35;;;;;;;0.10;0.10;;;16.20;99.90;;;;;;5079577;28;20744;-75
2023/05/12 11:24:02;;;;;;;0.10;0.10;;;16.40;99.90;;;;;;5079223;28;20048;-81
2023/05/12 11:26:29;;;;;;;0.10;0.10;;;16.50;99.90;;;;;;5079101;28;20028;-76
2023/05/12 11:28:57;;;;;;;0.10;0.10;;;16.40;99.90;;;;;;5078808;28;20016;-74
2023/05/12 11:31:24;;;;;;;1.90;1.80;;;16.80;99.90;;;;;;5078907;28;20527;-79
2023/05/12 11:34:00;;;;;;;3.92;3.63;;;17.00;99.90;;;;;;5079006;28;20212;-74
2023/05/12 11:36:27;;;;;;;0.10;0.10;;;17.20;99.90;;;;;;5079118;28;20028;-82
2023/05/12 11:38:53;;;;;;;0.10;0.10;;;18.30;99.90;;;;;;5079164;28;20016;-79
2023/05/12 11:41:25;;;;;;;0.10;0.10;;;18.00;99.90;;;;;;5079238;28;20486;-78
2023/05/12 11:43:51;;;;;;;8.40;5.97;;;18.40;99.90;;;;;;5079448;28;20028;-85
2023/05/12 11:46:26;;;;;;;1.55;1.55;;;19.60;99.90;;;;;;5078578;28;20036;-75
2023/05/12 11:48:57;;;;;;;1.55;1.45;;;19.60;99.90;;;;;;5077181;28;20024;-77
2023/05/12 11:51:23;;;;;;;0.70;0.70;;;20.20;99.90;;;;;;5077404;28;20020;-73
2023/05/12 11:53:49;;;;;;;0.10;0.10;;;20.50;99.90;;;;;;5078253;28;20390;-79
2023/05/12 11:56:20;;;;;;;0.10;0.10;;;20.50;99.90;;;;;;5079443;28;20112;-81
2023/05/12 11:58:56;;;;;;;0.10;0.10;;;20.60;99.90;;;;;;5078709;28;20024;-78
2023/05/12 12:01:23;;;;;;;4.63;2.65;;;20.90;99.90;;;;;;5078606;28;20091;-77
2023/05/12 12:03:51;;;;;;;0.10;0.10;;;21.00;99.90;;;;;;5078169;28;20016;-78
2023/05/12 12:06:18;;;;;;;1.73;1.63;;;21.30;99.90;;;;;;5076034;28;20044;-80
2023/05/12 12:08:53;;;;;;;0.10;0.10;;;21.60;99.90;;;;;;5078192;28;20017;-75
2023/05/12 12:11:20;;;;;;;0.15;0.15;;;21.20;99.90;;;;;;5078585;28;20051;-77
2023/05/12 12:13:55;;;;;;;0.10;0.10;;;21.00;99.90;;;;;;5077483;28;20028;-81
2023/05/12 12:16:25;;;;;;;0.10;0.10;;;20.80;99.90;;;;;;5077617;28;20016;-83
2023/05/12 12:18:50;;;;;;;0.00;0.00;;;20.40;99.90;;;;;;5079089;28;20016;-84
2023/05/12 12:21:17;;;;;;;0.10;0.10;;;18.50;99.90;;;;;;5078870;28;20020;-75
2023/05/12 12:23:43;;;;;;;0.10;0.10;;;20.70;99.90;;;;;;5078260;28;20091;-76
2023/05/12 12:26:09;;;;;;;0.10;0.10;;;21.10;99.90;;;;;;5077697;28;20028;-73
2023/05/12 12:28:35;;;;;;;1.50;1.50;;;21.80;99.90;;;;;;5077417;28;20563;-76
2023/05/12 12:31:01;;;;;;;0.10;0.10;;;21.80;99.90;;;;;;5077710;28;20604;-76
2023/05/12 12:33:26;;;;;;;0.05;0.05;;;22.00;99.90;;;;;;5079265;28;20112;-79
2023/05/12 12:35:52;;;;;;;0.10;0.10;;;21.30;99.90;;;;;;5078601;28;20024;-76
2023/05/12 12:38:18;;;;;;;0.25;0.25;;;21.40;99.90;;;;;;5077972;28;20669;-73
2023/05/12 12:40:44;;;;;;;1.38;0.65;;;21.10;99.90;;;;;;5078395;28;20023;-74
2023/05/12 12:43:12;;;;;;;0.10;0.10;;;20.50;99.90;;;;;;5078203;28;20308;-81
2023/05/12 12:45:38;;;;;;;0.10;0.10;;;20.10;99.90;;;;;;5077951;28;20054;-82
2023/05/12 12:48:05;;;;;;;0.10;0.10;;;20.00;99.90;;;;;;5077583;28;20052;-78